Augusta, Arkansas
Current Conditions -  °F | °C
As of 8:56 PM on Friday 21 Nov 2014 (Local Time) from KSRC Reporting Station
Haze Haze  
Wind Chill:   Ceiling: 7000
Heat Index:   Visibility: 4mi
Dew Point:   Wind: 0mph
Humidity: 96%   Direction: NA
Pressure: 30.28"   Gusts: NA
Location:  35.28°N, 91.37°W
Report Text: KSRC 220256Z AUTO 00000KT 4SM BR OVC070 08/07 A3028 RMK AO2 RAE01 SLP260 P0001 60005 T00780072 58007 TSNO
Loading
Personal Weather Stations






























Interactive Weather Map New forecast layout! Learn more

10-Day Weather Forecast

Advertisements
Track Severe Weather on mobile